sensor_id;sensor_type;location;lat;lon;timestamp;temperature;humidity
5520;DHT22;2782;52.362;10.012;2022-12-16T00:00:30;19.00;47.50
5520;DHT22;2782;52.362;10.012;2022-12-16T00:01:31;19.00;47.60
5520;DHT22;2782;52.362;10.012;2022-12-16T00:02:33;19.00;47.80
5520;DHT22;2782;52.362;10.012;2022-12-16T00:03:34;19.00;48.10
5520;DHT22;2782;52.362;10.012;2022-12-16T00:04:35;19.00;48.30
5520;DHT22;2782;52.362;10.012;2022-12-16T00:05:36;19.00;48.30
5520;DHT22;2782;52.362;10.012;2022-12-16T00:06:38;19.00;48.30
5520;DHT22;2782;52.362;10.012;2022-12-16T00:07:39;19.00;48.40
5520;DHT22;2782;52.362;10.012;2022-12-16T00:08:40;19.00;48.30
5520;DHT22;2782;52.362;10.012;2022-12-16T00:09:41;19.00;48.60
5520;DHT22;2782;52.362;10.012;2022-12-16T00:10:44;19.00;48.30
5520;DHT22;2782;52.362;10.012;2022-12-16T00:11:53;19.00;48.30
5520;DHT22;2782;52.362;10.012;2022-12-16T00:12:56;19.00;48.30
5520;DHT22;2782;52.362;10.012;2022-12-16T00:13:57;18.90;48.20
5520;DHT22;2782;52.362;10.012;2022-12-16T00:14:59;19.00;48.30
5520;DHT22;2782;52.362;10.012;2022-12-16T00:16:03;18.90;48.20
5520;DHT22;2782;52.362;10.012;2022-12-16T00:17:06;18.90;48.20
5520;DHT22;2782;52.362;10.012;2022-12-16T00:18:06;18.90;48.20
5520;DHT22;2782;52.362;10.012;2022-12-16T00:19:08;18.90;48.20
5520;DHT22;2782;52.362;10.012;2022-12-16T00:20:10;18.90;48.10
5520;DHT22;2782;52.362;10.012;2022-12-16T00:21:12;18.90;48.20
5520;DHT22;2782;52.362;10.012;2022-12-16T00:22:13;18.90;48.20
5520;DHT22;2782;52.362;10.012;2022-12-16T00:23:14;18.90;48.20
5520;DHT22;2782;52.362;10.012;2022-12-16T00:24:15;18.90;48.20
5520;DHT22;2782;52.362;10.012;2022-12-16T00:25:17;18.90;48.10
5520;DHT22;2782;52.362;10.012;2022-12-16T00:26:19;18.90;48.10
5520;DHT22;2782;52.362;10.012;2022-12-16T00:27:21;18.90;48.10
5520;DHT22;2782;52.362;10.012;2022-12-16T00:28:21;18.90;48.10
5520;DHT22;2782;52.362;10.012;2022-12-16T00:29:23;18.90;48.70
5520;DHT22;2782;52.362;10.012;2022-12-16T00:30:25;18.90;48.20
5520;DHT22;2782;52.362;10.012;2022-12-16T00:31:26;18.90;48.20
5520;DHT22;2782;52.362;10.012;2022-12-16T00:32:27;18.90;48.20
5520;DHT22;2782;52.362;10.012;2022-12-16T00:33:28;18.90;48.10
5520;DHT22;2782;52.362;10.012;2022-12-16T00:34:30;18.80;48.00
5520;DHT22;2782;52.362;10.012;2022-12-16T00:35:31;18.80;48.10
5520;DHT22;2782;52.362;10.012;2022-12-16T00:36:33;18.80;48.10
5520;DHT22;2782;52.362;10.012;2022-12-16T00:37:33;18.80;48.00
5520;DHT22;2782;52.362;10.012;2022-12-16T00:38:35;18.80;48.00
5520;DHT22;2782;52.362;10.012;2022-12-16T00:39:36;18.80;48.10
5520;DHT22;2782;52.362;10.012;2022-12-16T00:40:38;18.80;48.00
5520;DHT22;2782;52.362;10.012;2022-12-16T00:41:40;18.80;48.10
5520;DHT22;2782;52.362;10.012;2022-12-16T00:42:41;18.80;48.10
5520;DHT22;2782;52.362;10.012;2022-12-16T00:43:42;18.80;48.10
5520;DHT22;2782;52.362;10.012;2022-12-16T00:44:44;18.80;48.10
5520;DHT22;2782;52.362;10.012;2022-12-16T00:45:45;18.80;48.10
5520;DHT22;2782;52.362;10.012;2022-12-16T00:46:46;18.80;48.10
5520;DHT22;2782;52.362;10.012;2022-12-16T00:47:48;18.80;48.10
5520;DHT22;2782;52.362;10.012;2022-12-16T00:48:50;18.80;48.10
5520;DHT22;2782;52.362;10.012;2022-12-16T00:49:51;18.80;48.10
5520;DHT22;2782;52.362;10.012;2022-12-16T00:50:53;18.80;48.10
5520;DHT22;2782;52.362;10.012;2022-12-16T00:51:54;18.80;48.10
5520;DHT22;2782;52.362;10.012;2022-12-16T00:52:56;18.80;48.10
5520;DHT22;2782;52.362;10.012;2022-12-16T00:53:57;18.80;48.10
5520;DHT22;2782;52.362;10.012;2022-12-16T00:54:58;18.80;48.10
5520;DHT22;2782;52.362;10.012;2022-12-16T00:56:03;18.80;48.10
5520;DHT22;2782;52.362;10.012;2022-12-16T00:57:06;18.70;48.00
5520;DHT22;2782;52.362;10.012;2022-12-16T00:58:07;18.80;48.10
5520;DHT22;2782;52.362;10.012;2022-12-16T00:59:09;18.80;48.10
5520;DHT22;2782;52.362;10.012;2022-12-16T01:00:11;18.80;48.10
5520;DHT22;2782;52.362;10.012;2022-12-16T01:01:14;18.80;48.10
5520;DHT22;2782;52.362;10.012;2022-12-16T01:02:14;18.80;48.10
5520;DHT22;2782;52.362;10.012;2022-12-16T01:03:16;18.80;48.10
5520;DHT22;2782;52.362;10.012;2022-12-16T01:04:17;18.80;48.10
5520;DHT22;2782;52.362;10.012;2022-12-16T01:05:20;18.80;48.10
5520;DHT22;2782;52.362;10.012;2022-12-16T01:06:26;18.80;48.00
5520;DHT22;2782;52.362;10.012;2022-12-16T01:07:27;18.70;48.00
5520;DHT22;2782;52.362;10.012;2022-12-16T01:08:28;18.70;47.90
5520;DHT22;2782;52.362;10.012;2022-12-16T01:09:30;18.70;47.90
5520;DHT22;2782;52.362;10.012;2022-12-16T01:10:30;18.70;47.90
5520;DHT22;2782;52.362;10.012;2022-12-16T01:11:32;18.70;47.90
5520;DHT22;2782;52.362;10.012;2022-12-16T01:12:35;18.70;47.90
5520;DHT22;2782;52.362;10.012;2022-12-16T01:13:37;18.70;47.90
5520;DHT22;2782;52.362;10.012;2022-12-16T01:14:37;18.70;47.90
5520;DHT22;2782;52.362;10.012;2022-12-16T01:15:39;18.70;47.90
5520;DHT22;2782;52.362;10.012;2022-12-16T01:16:40;18.70;47.90
5520;DHT22;2782;52.362;10.012;2022-12-16T01:17:41;18.70;47.90
5520;DHT22;2782;52.362;10.012;2022-12-16T01:18:42;18.70;47.80
5520;DHT22;2782;52.362;10.012;2022-12-16T01:19:44;18.70;47.80
5520;DHT22;2782;52.362;10.012;2022-12-16T01:20:45;18.70;47.90
5520;DHT22;2782;52.362;10.012;2022-12-16T01:21:47;18.60;47.80
5520;DHT22;2782;52.362;10.012;2022-12-16T01:22:47;18.70;47.90
5520;DHT22;2782;52.362;10.012;2022-12-16T01:23:49;18.70;47.90
5520;DHT22;2782;52.362;10.012;2022-12-16T01:24:50;18.70;47.90
5520;DHT22;2782;52.362;10.012;2022-12-16T01:25:53;18.70;47.80
5520;DHT22;2782;52.362;10.012;2022-12-16T01:26:57;18.70;47.80
5520;DHT22;2782;52.362;10.012;2022-12-16T01:28:00;18.60;47.70
5520;DHT22;2782;52.362;10.012;2022-12-16T01:29:01;18.60;47.80
5520;DHT22;2782;52.362;10.012;2022-12-16T01:30:04;18.60;47.80
5520;DHT22;2782;52.362;10.012;2022-12-16T01:31:05;18.60;47.80
5520;DHT22;2782;52.362;10.012;2022-12-16T01:32:08;18.60;47.80
5520;DHT22;2782;52.362;10.012;2022-12-16T01:33:10;18.60;48.30
5520;DHT22;2782;52.362;10.012;2022-12-16T01:34:11;18.60;47.80
5520;DHT22;2782;52.362;10.012;2022-12-16T01:35:12;18.60;48.30
5520;DHT22;2782;52.362;10.012;2022-12-16T01:36:14;18.60;47.80
5520;DHT22;2782;52.362;10.012;2022-12-16T01:37:15;18.60;47.80
5520;DHT22;2782;52.362;10.012;2022-12-16T01:38:17;18.60;47.70
5520;DHT22;2782;52.362;10.012;2022-12-16T01:39:18;18.60;47.80
5520;DHT22;2782;52.362;10.012;2022-12-16T01:40:22;18.60;47.80
5520;DHT22;2782;52.362;10.012;2022-12-16T01:41:23;18.50;47.70
5520;DHT22;2782;52.362;10.012;2022-12-16T01:42:25;18.50;47.70
5520;DHT22;2782;52.362;10.012;2022-12-16T01:43:31;18.50;47.70
5520;DHT22;2782;52.362;10.012;2022-12-16T01:44:33;18.50;47.70
5520;DHT22;2782;52.362;10.012;2022-12-16T01:45:35;18.50;47.70
5520;DHT22;2782;52.362;10.012;2022-12-16T01:46:36;18.50;47.70
5520;DHT22;2782;52.362;10.012;2022-12-16T01:47:37;18.50;47.70
5520;DHT22;2782;52.362;10.012;2022-12-16T01:48:43;18.50;47.70
5520;DHT22;2782;52.362;10.012;2022-12-16T01:49:48;18.50;47.70
5520;DHT22;2782;52.362;10.012;2022-12-16T01:50:53;18.50;47.70
5520;DHT22;2782;52.362;10.012;2022-12-16T01:52:00;18.40;47.70
5520;DHT22;2782;52.362;10.012;2022-12-16T01:53:03;18.40;47.60
5520;DHT22;2782;52.362;10.012;2022-12-16T01:54:09;18.40;47.70
5520;DHT22;2782;52.362;10.012;2022-12-16T01:55:18;18.40;47.70
5520;DHT22;2782;52.362;10.012;2022-12-16T01:56:20;18.40;47.80
5520;DHT22;2782;52.362;10.012;2022-12-16T01:57:26;18.40;47.60
5520;DHT22;2782;52.362;10.012;2022-12-16T01:58:32;18.40;47.70
5520;DHT22;2782;52.362;10.012;2022-12-16T01:59:37;18.40;47.70
5520;DHT22;2782;52.362;10.012;2022-12-16T02:00:40;18.40;47.70
5520;DHT22;2782;52.362;10.012;2022-12-16T02:01:41;18.40;47.70
5520;DHT22;2782;52.362;10.012;2022-12-16T02:02:44;18.40;47.70
5520;DHT22;2782;52.362;10.012;2022-12-16T02:03:46;18.40;47.70
5520;DHT22;2782;52.362;10.012;2022-12-16T02:04:49;18.40;47.80
5520;DHT22;2782;52.362;10.012;2022-12-16T02:06:08;18.40;47.70
5520;DHT22;2782;52.362;10.012;2022-12-16T02:07:10;18.40;47.60
5520;DHT22;2782;52.362;10.012;2022-12-16T02:08:12;18.40;47.60
5520;DHT22;2782;52.362;10.012;2022-12-16T02:09:15;18.40;47.70
5520;DHT22;2782;52.362;10.012;2022-12-16T02:10:17;18.40;47.70
5520;DHT22;2782;52.362;10.012;2022-12-16T02:11:31;18.30;47.60
5520;DHT22;2782;52.362;10.012;2022-12-16T02:12:42;18.30;47.50
5520;DHT22;2782;52.362;10.012;2022-12-16T02:15:26;18.30;47.60
5520;DHT22;2782;52.362;10.012;2022-12-16T02:16:34;18.30;47.60
5520;DHT22;2782;52.362;10.012;2022-12-16T02:17:44;18.30;47.60
5520;DHT22;2782;52.362;10.012;2022-12-16T02:18:52;18.30;47.60
5520;DHT22;2782;52.362;10.012;2022-12-16T02:21:44;18.30;47.70
5520;DHT22;2782;52.362;10.012;2022-12-16T02:22:57;18.20;47.50
5520;DHT22;2782;52.362;10.012;2022-12-16T02:26:10;18.20;47.60
5520;DHT22;2782;52.362;10.012;2022-12-16T02:29:18;18.20;47.60
5520;DHT22;2782;52.362;10.012;2022-12-16T02:30:45;18.20;47.70
5520;DHT22;2782;52.362;10.012;2022-12-16T02:31:54;18.10;47.50
5520;DHT22;2782;52.362;10.012;2022-12-16T02:33:06;18.10;47.60
5520;DHT22;2782;52.362;10.012;2022-12-16T02:34:12;18.10;47.60
5520;DHT22;2782;52.362;10.012;2022-12-16T02:35:25;18.10;47.60
5520;DHT22;2782;52.362;10.012;2022-12-16T02:36:48;18.10;47.60
5520;DHT22;2782;52.362;10.012;2022-12-16T02:37:58;18.10;47.60
5520;DHT22;2782;52.362;10.012;2022-12-16T02:39:04;18.10;47.60
5520;DHT22;2782;52.362;10.012;2022-12-16T02:40:14;18.10;47.60
5520;DHT22;2782;52.362;10.012;2022-12-16T02:41:22;18.10;47.70
5520;DHT22;2782;52.362;10.012;2022-12-16T02:42:29;18.00;47.50
5520;DHT22;2782;52.362;10.012;2022-12-16T02:43:46;18.00;47.60
5520;DHT22;2782;52.362;10.012;2022-12-16T02:44:54;18.00;47.60
5520;DHT22;2782;52.362;10.012;2022-12-16T02:45:59;18.00;47.50
5520;DHT22;2782;52.362;10.012;2022-12-16T02:47:02;18.00;47.50
5520;DHT22;2782;52.362;10.012;2022-12-16T02:48:03;18.00;47.50
5520;DHT22;2782;52.362;10.012;2022-12-16T02:49:06;18.00;47.60
5520;DHT22;2782;52.362;10.012;2022-12-16T02:50:15;18.00;47.50
5520;DHT22;2782;52.362;10.012;2022-12-16T02:51:17;18.00;47.50
5520;DHT22;2782;52.362;10.012;2022-12-16T02:52:20;18.00;47.60
5520;DHT22;2782;52.362;10.012;2022-12-16T02:53:23;18.00;47.50
5520;DHT22;2782;52.362;10.012;2022-12-16T02:54:25;18.00;47.60
5520;DHT22;2782;52.362;10.012;2022-12-16T02:55:31;18.00;47.60
5520;DHT22;2782;52.362;10.012;2022-12-16T02:56:44;18.00;47.60
5520;DHT22;2782;52.362;10.012;2022-12-16T02:58:03;18.00;47.60
5520;DHT22;2782;52.362;10.012;2022-12-16T02:59:15;17.90;47.40
5520;DHT22;2782;52.362;10.012;2022-12-16T03:00:18;18.00;47.50
5520;DHT22;2782;52.362;10.012;2022-12-16T03:01:26;18.00;47.60
5520;DHT22;2782;52.362;10.012;2022-12-16T03:02:39;18.00;47.50
5520;DHT22;2782;52.362;10.012;2022-12-16T03:03:45;18.00;47.60
5520;DHT22;2782;52.362;10.012;2022-12-16T03:04:51;18.00;47.50
5520;DHT22;2782;52.362;10.012;2022-12-16T03:05:55;18.00;47.60
5520;DHT22;2782;52.362;10.012;2022-12-16T03:06:59;18.00;47.50
5520;DHT22;2782;52.362;10.012;2022-12-16T03:08:04;18.00;47.60
5520;DHT22;2782;52.362;10.012;2022-12-16T03:09:08;18.00;47.50
5520;DHT22;2782;52.362;10.012;2022-12-16T03:10:14;18.00;47.50
5520;DHT22;2782;52.362;10.012;2022-12-16T03:11:16;18.00;47.60
5520;DHT22;2782;52.362;10.012;2022-12-16T03:12:19;17.90;47.50
5520;DHT22;2782;52.362;10.012;2022-12-16T03:13:22;18.00;47.50
5520;DHT22;2782;52.362;10.012;2022-12-16T03:14:26;18.00;47.50
5520;DHT22;2782;52.362;10.012;2022-12-16T03:15:32;18.00;47.50
5520;DHT22;2782;52.362;10.012;2022-12-16T03:16:35;17.90;47.40
5520;DHT22;2782;52.362;10.012;2022-12-16T03:17:37;18.00;47.50
5520;DHT22;2782;52.362;10.012;2022-12-16T03:18:41;17.90;47.40
5520;DHT22;2782;52.362;10.012;2022-12-16T03:19:48;17.90;47.40
5520;DHT22;2782;52.362;10.012;2022-12-16T03:20:54;17.90;47.40
5520;DHT22;2782;52.362;10.012;2022-12-16T03:21:59;17.90;47.30
5520;DHT22;2782;52.362;10.012;2022-12-16T03:23:05;17.90;47.40
5520;DHT22;2782;52.362;10.012;2022-12-16T03:24:11;17.90;47.40
5520;DHT22;2782;52.362;10.012;2022-12-16T03:25:13;17.90;47.40
5520;DHT22;2782;52.362;10.012;2022-12-16T03:26:18;17.90;47.30
5520;DHT22;2782;52.362;10.012;2022-12-16T03:27:24;17.90;47.40
5520;DHT22;2782;52.362;10.012;2022-12-16T03:28:36;17.90;47.30
5520;DHT22;2782;52.362;10.012;2022-12-16T03:29:42;17.90;47.30
5520;DHT22;2782;52.362;10.012;2022-12-16T03:30:49;17.90;47.30
5520;DHT22;2782;52.362;10.012;2022-12-16T03:31:55;17.90;47.30
5520;DHT22;2782;52.362;10.012;2022-12-16T03:33:00;17.80;47.20
5520;DHT22;2782;52.362;10.012;2022-12-16T03:34:08;17.80;47.20
5520;DHT22;2782;52.362;10.012;2022-12-16T03:35:15;17.80;47.20
5520;DHT22;2782;52.362;10.012;2022-12-16T03:36:21;17.80;47.30
5520;DHT22;2782;52.362;10.012;2022-12-16T03:37:26;17.80;47.30
5520;DHT22;2782;52.362;10.012;2022-12-16T03:38:30;17.80;47.40
5520;DHT22;2782;52.362;10.012;2022-12-16T03:39:34;17.80;47.30
5520;DHT22;2782;52.362;10.012;2022-12-16T03:40:37;17.80;47.30
5520;DHT22;2782;52.362;10.012;2022-12-16T03:41:42;17.80;47.30
5520;DHT22;2782;52.362;10.012;2022-12-16T03:42:45;17.80;47.30
5520;DHT22;2782;52.362;10.012;2022-12-16T03:43:46;17.70;47.30
5520;DHT22;2782;52.362;10.012;2022-12-16T03:44:49;17.70;47.30
5520;DHT22;2782;52.362;10.012;2022-12-16T03:45:52;17.70;47.40
5520;DHT22;2782;52.362;10.012;2022-12-16T03:46:56;17.70;47.30
5520;DHT22;2782;52.362;10.012;2022-12-16T03:47:59;17.70;47.30
5520;DHT22;2782;52.362;10.012;2022-12-16T03:49:00;17.70;47.30
5520;DHT22;2782;52.362;10.012;2022-12-16T03:50:02;17.70;47.30
5520;DHT22;2782;52.362;10.012;2022-12-16T03:51:03;17.70;47.40
5520;DHT22;2782;52.362;10.012;2022-12-16T03:52:05;17.70;47.30
5520;DHT22;2782;52.362;10.012;2022-12-16T03:53:06;17.70;47.30
5520;DHT22;2782;52.362;10.012;2022-12-16T03:54:08;17.70;47.30
5520;DHT22;2782;52.362;10.012;2022-12-16T03:55:08;17.70;47.30
5520;DHT22;2782;52.362;10.012;2022-12-16T03:56:10;17.70;47.30
5520;DHT22;2782;52.362;10.012;2022-12-16T03:57:11;17.70;47.30
5520;DHT22;2782;52.362;10.012;2022-12-16T03:58:13;17.70;47.30
5520;DHT22;2782;52.362;10.012;2022-12-16T03:59:14;17.70;47.30
5520;DHT22;2782;52.362;10.012;2022-12-16T04:00:16;17.70;47.30
5520;DHT22;2782;52.362;10.012;2022-12-16T04:01:17;17.70;47.30
5520;DHT22;2782;52.362;10.012;2022-12-16T04:02:20;17.70;47.30
5520;DHT22;2782;52.362;10.012;2022-12-16T04:03:20;17.70;47.20
5520;DHT22;2782;52.362;10.012;2022-12-16T04:04:23;17.70;47.20
5520;DHT22;2782;52.362;10.012;2022-12-16T04:05:23;17.70;47.10
5520;DHT22;2782;52.362;10.012;2022-12-16T04:06:25;17.70;47.20
5520;DHT22;2782;52.362;10.012;2022-12-16T04:07:26;17.70;47.20
5520;DHT22;2782;52.362;10.012;2022-12-16T04:08:30;17.60;47.10
5520;DHT22;2782;52.362;10.012;2022-12-16T04:09:31;17.60;47.10
5520;DHT22;2782;52.362;10.012;2022-12-16T04:10:32;17.60;47.20
5520;DHT22;2782;52.362;10.012;2022-12-16T04:11:51;17.60;47.10
5520;DHT22;2782;52.362;10.012;2022-12-16T04:13:11;17.60;47.10
5520;DHT22;2782;52.362;10.012;2022-12-16T04:14:30;17.60;47.20
5520;DHT22;2782;52.362;10.012;2022-12-16T04:15:49;17.60;47.20
5520;DHT22;2782;52.362;10.012;2022-12-16T04:17:10;17.60;47.10
5520;DHT22;2782;52.362;10.012;2022-12-16T04:18:39;17.60;47.20
5520;DHT22;2782;52.362;10.012;2022-12-16T04:19:59;17.50;47.10
5520;DHT22;2782;52.362;10.012;2022-12-16T04:21:18;17.50;47.20
5520;DHT22;2782;52.362;10.012;2022-12-16T04:22:39;17.50;47.20
5520;DHT22;2782;52.362;10.012;2022-12-16T04:23:59;17.50;47.30
5520;DHT22;2782;52.362;10.012;2022-12-16T04:25:20;17.50;47.40
5520;DHT22;2782;52.362;10.012;2022-12-16T04:26:22;17.50;47.30
5520;DHT22;2782;52.362;10.012;2022-12-16T04:27:23;17.50;47.40
5520;DHT22;2782;52.362;10.012;2022-12-16T04:28:24;17.50;47.30
5520;DHT22;2782;52.362;10.012;2022-12-16T04:29:25;17.50;47.30
5520;DHT22;2782;52.362;10.012;2022-12-16T04:30:28;17.50;47.30
5520;DHT22;2782;52.362;10.012;2022-12-16T04:31:34;17.50;47.30
5520;DHT22;2782;52.362;10.012;2022-12-16T04:32:34;17.50;47.30
5520;DHT22;2782;52.362;10.012;2022-12-16T04:33:51;17.50;47.40
5520;DHT22;2782;52.362;10.012;2022-12-16T04:35:11;17.50;47.40
5520;DHT22;2782;52.362;10.012;2022-12-16T04:36:27;17.50;47.30
5520;DHT22;2782;52.362;10.012;2022-12-16T04:37:46;17.40;47.20
5520;DHT22;2782;52.362;10.012;2022-12-16T04:39:05;17.40;47.20
5520;DHT22;2782;52.362;10.012;2022-12-16T04:40:24;17.40;47.30
5520;DHT22;2782;52.362;10.012;2022-12-16T04:41:43;17.40;47.30
5520;DHT22;2782;52.362;10.012;2022-12-16T04:43:02;17.40;47.30
5520;DHT22;2782;52.362;10.012;2022-12-16T04:44:21;17.40;47.30
5520;DHT22;2782;52.362;10.012;2022-12-16T04:45:40;17.30;47.20
5520;DHT22;2782;52.362;10.012;2022-12-16T04:46:59;17.30;47.40
5520;DHT22;2782;52.362;10.012;2022-12-16T04:48:18;17.30;47.40
5520;DHT22;2782;52.362;10.012;2022-12-16T04:49:39;17.30;47.40
5520;DHT22;2782;52.362;10.012;2022-12-16T04:50:58;17.30;47.30
5520;DHT22;2782;52.362;10.012;2022-12-16T04:52:17;17.30;47.30
5520;DHT22;2782;52.362;10.012;2022-12-16T04:53:36;17.30;47.40
5520;DHT22;2782;52.362;10.012;2022-12-16T04:54:55;17.30;47.30
5520;DHT22;2782;52.362;10.012;2022-12-16T04:56:15;17.30;47.30
5520;DHT22;2782;52.362;10.012;2022-12-16T04:57:34;17.30;47.30
5520;DHT22;2782;52.362;10.012;2022-12-16T04:58:53;17.30;47.40
5520;DHT22;2782;52.362;10.012;2022-12-16T05:00:12;17.30;47.30
5520;DHT22;2782;52.362;10.012;2022-12-16T05:01:32;17.30;47.40
5520;DHT22;2782;52.362;10.012;2022-12-16T05:02:51;17.30;47.30
5520;DHT22;2782;52.362;10.012;2022-12-16T05:04:10;17.20;47.30
5520;DHT22;2782;52.362;10.012;2022-12-16T05:05:30;17.30;47.40
5520;DHT22;2782;52.362;10.012;2022-12-16T05:06:49;17.20;47.30
5520;DHT22;2782;52.362;10.012;2022-12-16T05:08:09;17.20;47.30
5520;DHT22;2782;52.362;10.012;2022-12-16T05:09:39;17.20;47.40
5520;DHT22;2782;52.362;10.012;2022-12-16T05:10:59;17.20;47.40
5520;DHT22;2782;52.362;10.012;2022-12-16T05:12:18;17.20;47.40
5520;DHT22;2782;52.362;10.012;2022-12-16T05:13:37;17.20;47.40
5520;DHT22;2782;52.362;10.012;2022-12-16T05:14:56;17.20;47.50
5520;DHT22;2782;52.362;10.012;2022-12-16T05:16:15;17.20;47.40
5520;DHT22;2782;52.362;10.012;2022-12-16T05:17:35;17.20;47.40
5520;DHT22;2782;52.362;10.012;2022-12-16T05:18:54;17.20;47.40
5520;DHT22;2782;52.362;10.012;2022-12-16T05:20:13;17.20;47.20
5520;DHT22;2782;52.362;10.012;2022-12-16T05:21:34;17.30;47.50
5520;DHT22;2782;52.362;10.012;2022-12-16T05:22:54;17.20;47.40
5520;DHT22;2782;52.362;10.012;2022-12-16T05:24:14;17.30;47.40
5520;DHT22;2782;52.362;10.012;2022-12-16T05:25:33;17.30;47.40
5520;DHT22;2782;52.362;10.012;2022-12-16T05:26:52;17.30;47.40
5520;DHT22;2782;52.362;10.012;2022-12-16T05:28:11;17.30;47.50
5520;DHT22;2782;52.362;10.012;2022-12-16T05:29:31;17.30;47.50
5520;DHT22;2782;52.362;10.012;2022-12-16T05:30:50;17.30;47.50
5520;DHT22;2782;52.362;10.012;2022-12-16T05:32:09;17.30;47.50
5520;DHT22;2782;52.362;10.012;2022-12-16T05:33:29;17.30;47.30
5520;DHT22;2782;52.362;10.012;2022-12-16T05:34:48;17.30;47.30
5520;DHT22;2782;52.362;10.012;2022-12-16T05:36:07;17.20;47.30
5520;DHT22;2782;52.362;10.012;2022-12-16T05:37:28;17.30;47.30
5520;DHT22;2782;52.362;10.012;2022-12-16T05:38:52;17.30;47.30
5520;DHT22;2782;52.362;10.012;2022-12-16T05:40:12;17.30;47.30
5520;DHT22;2782;52.362;10.012;2022-12-16T05:41:31;17.30;47.40
5520;DHT22;2782;52.362;10.012;2022-12-16T05:42:50;17.30;47.50
5520;DHT22;2782;52.362;10.012;2022-12-16T05:44:09;17.30;47.60
5520;DHT22;2782;52.362;10.012;2022-12-16T05:45:28;17.30;47.70
5520;DHT22;2782;52.362;10.012;2022-12-16T05:46:47;17.30;47.80
5520;DHT22;2782;52.362;10.012;2022-12-16T05:48:07;17.30;47.90
5520;DHT22;2782;52.362;10.012;2022-12-16T05:49:25;17.30;48.10
5520;DHT22;2782;52.362;10.012;2022-12-16T05:50:45;17.30;48.50
5520;DHT22;2782;52.362;10.012;2022-12-16T05:52:04;17.30;48.80
5520;DHT22;2782;52.362;10.012;2022-12-16T05:53:24;17.30;48.90
5520;DHT22;2782;52.362;10.012;2022-12-16T05:54:43;17.30;48.80
5520;DHT22;2782;52.362;10.012;2022-12-16T05:56:17;17.30;48.80
5520;DHT22;2782;52.362;10.012;2022-12-16T05:57:36;17.40;48.80
5520;DHT22;2782;52.362;10.012;2022-12-16T05:58:55;17.40;48.80
5520;DHT22;2782;52.362;10.012;2022-12-16T06:00:15;17.40;48.80
5520;DHT22;2782;52.362;10.012;2022-12-16T06:01:34;17.40;48.80
5520;DHT22;2782;52.362;10.012;2022-12-16T06:02:54;17.40;48.80
5520;DHT22;2782;52.362;10.012;2022-12-16T06:04:13;17.50;48.70
5520;DHT22;2782;52.362;10.012;2022-12-16T06:05:32;17.50;48.80
5520;DHT22;2782;52.362;10.012;2022-12-16T06:06:52;17.50;48.90
5520;DHT22;2782;52.362;10.012;2022-12-16T06:08:11;17.50;48.80
5520;DHT22;2782;52.362;10.012;2022-12-16T06:09:31;17.50;48.90
5520;DHT22;2782;52.362;10.012;2022-12-16T06:10:51;17.50;49.20
5520;DHT22;2782;52.362;10.012;2022-12-16T06:12:10;17.50;49.40
5520;DHT22;2782;52.362;10.012;2022-12-16T06:13:29;17.50;49.80
5520;DHT22;2782;52.362;10.012;2022-12-16T06:14:49;17.60;49.90
5520;DHT22;2782;52.362;10.012;2022-12-16T06:16:08;17.60;50.00
5520;DHT22;2782;52.362;10.012;2022-12-16T06:17:28;17.60;50.30
5520;DHT22;2782;52.362;10.012;2022-12-16T06:18:47;17.60;50.50
5520;DHT22;2782;52.362;10.012;2022-12-16T06:20:07;17.60;50.80
5520;DHT22;2782;52.362;10.012;2022-12-16T06:21:26;17.70;51.20
5520;DHT22;2782;52.362;10.012;2022-12-16T06:22:50;17.70;51.00
5520;DHT22;2782;52.362;10.012;2022-12-16T06:24:09;17.70;51.20
5520;DHT22;2782;52.362;10.012;2022-12-16T06:25:29;17.70;50.70
5520;DHT22;2782;52.362;10.012;2022-12-16T06:26:48;17.70;50.50
5520;DHT22;2782;52.362;10.012;2022-12-16T06:28:13;17.70;50.70
5520;DHT22;2782;52.362;10.012;2022-12-16T06:29:32;17.70;50.50
5520;DHT22;2782;52.362;10.012;2022-12-16T06:30:51;17.70;50.40
5520;DHT22;2782;52.362;10.012;2022-12-16T06:32:10;17.70;50.70
5520;DHT22;2782;52.362;10.012;2022-12-16T06:33:29;17.70;50.90
5520;DHT22;2782;52.362;10.012;2022-12-16T06:34:49;17.80;51.20
5520;DHT22;2782;52.362;10.012;2022-12-16T06:36:08;17.80;51.20
5520;DHT22;2782;52.362;10.012;2022-12-16T06:37:27;17.80;51.10
5520;DHT22;2782;52.362;10.012;2022-12-16T06:38:47;17.80;51.20
5520;DHT22;2782;52.362;10.012;2022-12-16T06:40:07;17.80;51.30
5520;DHT22;2782;52.362;10.012;2022-12-16T06:41:27;17.90;52.00
5520;DHT22;2782;52.362;10.012;2022-12-16T06:42:47;17.90;51.50
5520;DHT22;2782;52.362;10.012;2022-12-16T06:44:06;17.90;51.40
5520;DHT22;2782;52.362;10.012;2022-12-16T06:45:25;17.90;50.10
5520;DHT22;2782;52.362;10.012;2022-12-16T06:46:44;17.90;49.70
5520;DHT22;2782;52.362;10.012;2022-12-16T06:48:04;17.90;49.90
5520;DHT22;2782;52.362;10.012;2022-12-16T06:49:23;17.90;50.00
5520;DHT22;2782;52.362;10.012;2022-12-16T06:50:43;17.90;50.00
5520;DHT22;2782;52.362;10.012;2022-12-16T06:52:02;18.00;50.20
5520;DHT22;2782;52.362;10.012;2022-12-16T06:53:21;18.00;50.10
5520;DHT22;2782;52.362;10.012;2022-12-16T06:54:40;18.00;50.00
5520;DHT22;2782;52.362;10.012;2022-12-16T06:56:00;18.00;50.00
5520;DHT22;2782;52.362;10.012;2022-12-16T06:57:20;18.00;49.90
5520;DHT22;2782;52.362;10.012;2022-12-16T06:58:40;18.00;49.80
5520;DHT22;2782;52.362;10.012;2022-12-16T06:59:59;18.00;50.60
5520;DHT22;2782;52.362;10.012;2022-12-16T07:01:20;18.10;50.40
5520;DHT22;2782;52.362;10.012;2022-12-16T07:02:39;18.10;50.30
5520;DHT22;2782;52.362;10.012;2022-12-16T07:03:58;18.10;50.20
5520;DHT22;2782;52.362;10.012;2022-12-16T07:05:18;18.20;49.90
5520;DHT22;2782;52.362;10.012;2022-12-16T07:06:37;18.10;49.80
5520;DHT22;2782;52.362;10.012;2022-12-16T07:07:56;18.20;49.80
5520;DHT22;2782;52.362;10.012;2022-12-16T07:09:16;18.20;50.30
5520;DHT22;2782;52.362;10.012;2022-12-16T07:10:35;18.20;50.70
5520;DHT22;2782;52.362;10.012;2022-12-16T07:11:55;18.20;50.30
5520;DHT22;2782;52.362;10.012;2022-12-16T07:13:15;18.30;51.10
5520;DHT22;2782;52.362;10.012;2022-12-16T07:14:34;18.30;50.10
5520;DHT22;2782;52.362;10.012;2022-12-16T07:15:53;18.30;49.30
5520;DHT22;2782;52.362;10.012;2022-12-16T07:17:12;18.30;50.00
5520;DHT22;2782;52.362;10.012;2022-12-16T07:18:32;18.30;48.80
5520;DHT22;2782;52.362;10.012;2022-12-16T07:19:51;18.30;48.60
5520;DHT22;2782;52.362;10.012;2022-12-16T07:21:10;18.30;49.00
5520;DHT22;2782;52.362;10.012;2022-12-16T07:22:29;18.30;48.70
5520;DHT22;2782;52.362;10.012;2022-12-16T07:23:48;18.30;48.10
5520;DHT22;2782;52.362;10.012;2022-12-16T07:25:07;18.20;49.20
5520;DHT22;2782;52.362;10.012;2022-12-16T07:26:27;18.20;49.50
5520;DHT22;2782;52.362;10.012;2022-12-16T07:27:46;18.20;45.40
5520;DHT22;2782;52.362;10.012;2022-12-16T07:29:07;18.10;45.50
5520;DHT22;2782;52.362;10.012;2022-12-16T07:30:26;18.10;47.10
5520;DHT22;2782;52.362;10.012;2022-12-16T07:31:45;18.10;47.60
5520;DHT22;2782;52.362;10.012;2022-12-16T07:33:04;18.00;47.50
5520;DHT22;2782;52.362;10.012;2022-12-16T07:34:24;18.00;47.50
5520;DHT22;2782;52.362;10.012;2022-12-16T07:35:43;18.10;47.50